Time;durP1;ratioP1;P1;durP2;ratioP2;P2;SDS_P1;SDS_P2;PMS_P1;PMS_P2;Temp;Humidity;BMP_temperature;BMP_pressure;BME280_temperature;BME280_humidity;BME280_pressure;Samples;Min_cycle;Max_cycle;Signal;HPM_P1;HPM_P2
2022/04/02 00:01:06;;;;;;;3.13;1.00;;;;;;;1.94;76.26;100306.16;5263614;28;20028;-77
2022/04/02 00:03:36;;;;;;;2.42;0.90;;;;;;;2.11;75.22;100309.50;5263819;28;20137;-77
2022/04/02 00:06:07;;;;;;;5.72;1.10;;;;;;;2.00;75.73;100296.66;5263640;28;20428;-77
2022/04/02 00:08:37;;;;;;;2.25;1.05;;;;;;;1.97;75.65;100311.31;5262462;28;20754;-77
2022/04/02 00:11:07;;;;;;;2.60;1.15;;;;;;;2.01;75.62;100300.97;5263431;28;20107;-77
2022/04/02 00:13:38;;;;;;;4.63;1.20;;;;;;;1.94;75.66;100306.16;5263709;28;20020;-77
2022/04/02 00:16:09;;;;;;;5.32;0.90;;;;;;;1.96;75.85;100305.28;5263303;28;20024;-77
2022/04/02 00:18:39;;;;;;;5.10;1.15;;;;;;;2.03;75.69;100300.97;5262998;28;20028;-77
2022/04/02 00:21:10;;;;;;;3.25;1.10;;;;;;;2.04;75.44;100303.53;5258988;28;20729;-77
2022/04/02 00:23:40;;;;;;;4.88;1.20;;;;;;;1.97;76.44;100307.00;5263561;28;20482;-77
2022/04/02 00:26:13;;;;;;;3.38;1.00;;;;;;;2.03;75.80;100304.38;5263315;28;20028;-77
2022/04/02 00:28:44;;;;;;;3.10;1.10;;;;;;;2.04;75.95;100297.53;5259319;28;20031;-77
2022/04/02 00:31:16;;;;;;;2.38;1.10;;;;;;;2.16;75.84;100297.44;5257174;28;20533;-77
2022/04/02 00:33:47;;;;;;;4.28;1.30;;;;;;;2.16;75.66;100300.88;5258258;28;20063;-77
2022/04/02 00:36:20;;;;;;;7.00;1.30;;;;;;;2.09;76.30;100294.06;5262851;28;20482;-77
2022/04/02 00:38:50;;;;;;;4.03;1.20;;;;;;;2.20;76.27;100293.97;5263082;28;20096;-77
2022/04/02 00:41:21;;;;;;;3.00;1.27;;;;;;;2.15;76.06;100303.47;5262872;28;20036;-77
2022/04/02 00:43:55;;;;;;;1.88;1.05;;;;;;;2.10;75.72;100300.03;5262586;28;20028;-77
2022/04/02 00:46:26;;;;;;;3.53;1.10;;;;;;;1.93;75.84;100299.28;5262644;28;20443;-77
2022/04/02 00:48:56;;;;;;;4.78;1.17;;;;;;;1.89;76.02;100307.91;5262905;28;20373;-77
2022/04/02 00:51:26;;;;;;;2.92;1.30;;;;;;;1.96;75.86;100301.88;5262835;28;20028;-77
2022/04/02 00:53:57;;;;;;;3.40;1.20;;;;;;;1.98;75.13;100293.25;5263090;28;20020;-77
2022/04/02 00:56:27;;;;;;;2.33;1.10;;;;;;;1.99;75.24;100309.59;5262964;28;20036;-77
2022/04/02 00:58:58;;;;;;;2.58;1.05;;;;;;;1.89;75.31;100313.06;5262978;28;20024;-77
2022/04/02 01:01:31;;;;;;;3.92;1.20;;;;;;;1.94;75.35;100316.47;5262931;28;20500;-77
2022/04/02 01:04:02;;;;;;;2.17;1.17;;;;;;;1.93;74.95;100315.63;5262996;28;20420;-77
2022/04/02 01:06:33;;;;;;;7.68;1.45;;;;;;;1.88;75.24;100319.06;5262544;28;20089;-77
2022/04/02 01:09:03;;;;;;;4.03;1.20;;;;;;;1.83;75.86;100325.97;5262628;28;20035;-77
2022/04/02 01:11:35;;;;;;;3.08;1.20;;;;;;;1.81;75.34;100325.13;5264047;28;20165;-77
2022/04/02 01:14:07;;;;;;;3.92;1.20;;;;;;;1.97;75.15;100326.78;5266754;28;20036;-77
2022/04/02 01:16:38;;;;;;;4.55;1.30;;;;;;;1.91;74.31;100319.06;5266695;28;20100;-77
2022/04/02 01:19:08;;;;;;;2.97;1.20;;;;;;;1.93;75.26;100330.22;5266343;28;20035;-77
2022/04/02 01:21:39;;;;;;;3.67;1.30;;;;;;;1.68;76.61;100328.63;5266686;28;20024;-77
2022/04/02 01:24:09;;;;;;;3.30;1.10;;;;;;;1.69;75.91;100330.34;5266948;28;20051;-77
2022/04/02 01:26:41;;;;;;;4.60;1.35;;;;;;;1.68;75.93;100331.19;5262624;28;20418;-77
2022/04/02 01:29:12;;;;;;;3.42;1.33;;;;;;;1.67;76.60;100332.06;5266759;28;20055;-77
2022/04/02 01:31:44;;;;;;;2.58;1.10;;;;;;;1.60;76.22;100327.78;5266472;28;20394;-77
2022/04/02 01:34:14;;;;;;;2.20;1.05;;;;;;;1.61;76.75;100342.34;5266654;28;20047;-77
2022/04/02 01:36:44;;;;;;;3.10;1.05;;;;;;;1.62;76.55;100343.22;5266225;28;20020;-77
2022/04/02 01:39:15;;;;;;;5.18;1.48;;;;;;;1.60;76.47;100334.66;5266489;28;20536;-77
2022/04/02 01:41:45;;;;;;;4.53;1.27;;;;;;;1.63;77.09;100350.09;5266152;28;20467;-77
2022/04/02 01:44:15;;;;;;;3.10;1.30;;;;;;;1.64;77.16;100342.38;5266392;28;20495;-77
2022/04/02 01:46:45;;;;;;;3.53;1.02;;;;;;;1.72;76.84;100335.47;5266136;28;20048;-77
2022/04/02 01:49:16;;;;;;;4.20;1.35;;;;;;;1.65;77.24;100336.38;5248277;28;20035;-77
2022/04/02 01:51:46;;;;;;;3.05;1.13;;;;;;;1.68;77.10;100338.91;5266049;28;20443;-77
2022/04/02 01:54:17;;;;;;;5.57;1.40;;;;;;;1.72;77.51;100339.78;5266455;28;20066;-77
2022/04/02 01:56:48;;;;;;;4.40;1.52;;;;;;;1.69;77.86;100348.34;5248026;28;20056;-77
2022/04/02 01:59:18;;;;;;;3.20;1.20;;;;;;;1.75;77.70;100345.75;5248319;28;20047;-77
2022/04/02 02:01:48;;;;;;;4.07;1.27;;;;;;;1.83;76.91;100349.16;5265766;28;20481;-77
2022/04/02 02:04:18;;;;;;;4.70;1.40;;;;;;;1.98;77.42;100346.53;5266254;28;20402;-77
2022/04/02 02:06:49;;;;;;;5.85;1.25;;;;;;;1.94;77.88;100349.94;5265854;28;20109;-77
2022/04/02 02:09:20;;;;;;;3.38;1.40;;;;;;;1.85;78.14;100344.84;5265887;28;20039;-77
2022/04/02 02:11:50;;;;;;;3.53;1.42;;;;;;;1.69;78.83;100347.47;5265489;28;20051;-77
2022/04/02 02:14:21;;;;;;;5.75;1.88;;;;;;;1.68;79.68;100349.22;5265440;28;20512;-77
2022/04/02 02:16:51;;;;;;;3.97;1.58;;;;;;;1.65;81.06;100343.22;5265090;28;20027;-77
2022/04/02 02:19:22;;;;;;;2.78;1.67;;;;;;;1.67;80.47;100349.22;5265418;28;20170;-77
2022/04/02 02:21:52;;;;;;;6.05;1.77;;;;;;;1.65;80.78;100350.94;5265283;28;20032;-77
2022/04/02 02:24:22;;;;;;;4.68;1.88;;;;;;;1.60;82.22;100355.25;5264406;28;20036;-77
2022/04/02 02:26:53;;;;;;;4.18;1.77;;;;;;;1.49;82.42;100355.28;5265356;28;20070;-78
2022/04/02 02:29:23;;;;;;;5.00;1.50;;;;;;;1.48;82.84;100358.72;5265507;28;20032;-77
2022/04/02 02:31:54;;;;;;;5.80;1.88;;;;;;;1.59;82.52;100351.81;5246742;28;20023;-77
2022/04/02 02:37:13;;;;;;;5.15;2.00;;;;;;;1.37;82.77;100370.75;5261347;28;20133;-77
2022/04/02 02:39:44;;;;;;;5.07;2.00;;;;;;;1.34;83.08;100370.78;5265826;28;20107;-77
2022/04/02 02:42:14;;;;;;;4.15;1.70;;;;;;;1.33;83.19;100365.63;5264826;28;20461;-77
2022/04/02 02:44:44;;;;;;;6.40;1.75;;;;;;;1.34;83.67;100372.47;5264643;28;20061;-77
2022/04/02 02:47:14;;;;;;;4.50;2.00;;;;;;;1.33;84.00;100374.22;5251200;28;20084;-77
2022/04/02 02:49:45;;;;;;;4.05;1.80;;;;;;;1.31;83.50;100368.22;5265028;28;20032;-77
2022/04/02 02:52:15;;;;;;;3.03;1.67;;;;;;;1.44;83.63;100375.03;5264635;28;20107;-78
2022/04/02 02:54:45;;;;;;;7.93;2.20;;;;;;;1.38;84.08;100375.06;5265132;28;20028;-77
2022/04/02 02:57:15;;;;;;;2.75;1.70;;;;;;;1.37;82.98;100369.91;5264802;28;20043;-77
2022/04/02 02:59:46;;;;;;;4.90;2.00;;;;;;;1.37;83.30;100381.06;5264801;28;20024;-77
2022/04/02 03:02:16;;;;;;;8.02;2.47;;;;;;;1.39;83.63;100381.91;5264839;28;20107;-77
2022/04/02 03:04:46;;;;;;;4.45;1.80;;;;;;;1.21;83.67;100386.25;5264843;28;20024;-78
2022/04/02 03:07:16;;;;;;;5.18;2.00;;;;;;;1.35;84.12;100380.22;5264686;28;20027;-77
2022/04/02 03:09:47;;;;;;;6.18;2.15;;;;;;;1.18;83.59;100392.25;5264718;28;20028;-77
2022/04/02 03:12:17;;;;;;;4.05;2.25;;;;;;;1.16;84.56;100390.53;5264132;28;20031;-77
2022/04/02 03:14:48;;;;;;;3.80;2.00;;;;;;;1.22;83.90;100390.53;5264253;28;20024;-77
2022/04/02 03:17:18;;;;;;;5.00;2.28;;;;;;;1.21;84.21;100394.81;5264276;28;20466;-77
2022/04/02 03:19:48;;;;;;;4.20;2.20;;;;;;;1.35;83.51;100389.63;5264261;28;20020;-77
2022/04/02 03:22:20;;;;;;;6.75;2.42;;;;;;;1.50;83.39;100390.47;5264064;28;20040;-77
2022/04/02 03:24:50;;;;;;;7.82;2.03;;;;;;;1.29;83.33;100392.22;5264625;28;20117;-77
2022/04/02 03:27:21;;;;;;;3.35;1.98;;;;;;;1.32;83.25;100392.22;5264087;28;20179;-77
2022/04/02 03:29:52;;;;;;;5.57;2.03;;;;;;;1.17;83.59;100395.69;5264053;28;20035;-77
2022/04/02 03:32:23;;;;;;;4.65;2.10;;;;;;;1.28;83.87;100401.69;5264012;28;20028;-77
2022/04/02 03:34:53;;;;;;;4.00;2.20;;;;;;;1.09;84.15;100405.09;5263849;28;20015;-77
2022/04/02 03:37:27;;;;;;;3.80;2.05;;;;;;;0.91;84.41;100407.69;5264022;28;20053;-77
2022/04/02 03:39:57;;;;;;;8.80;2.15;;;;;;;0.91;84.37;100411.97;5264169;28;20630;-77
2022/04/02 03:42:28;;;;;;;9.73;2.40;;;;;;;1.02;84.21;100411.13;5263790;28;20036;-77
2022/04/02 03:44:58;;;;;;;5.47;2.15;;;;;;;0.90;83.94;100416.25;5263568;28;20034;-76
2022/04/02 03:47:29;;;;;;;3.88;1.98;;;;;;;0.95;83.89;100412.00;5263323;28;21412;-77
2022/04/02 03:49:59;;;;;;;4.90;1.90;;;;;;;0.98;84.02;100411.13;5263547;28;20051;-77
2022/04/02 03:52:30;;;;;;;5.07;1.88;;;;;;;0.93;83.07;100412.84;5263672;28;20031;-77
2022/04/02 03:55:00;;;;;;;4.05;1.80;;;;;;;0.81;83.72;100426.56;5263916;28;20027;-77
2022/04/02 03:57:31;;;;;;;4.80;2.10;;;;;;;0.66;84.55;100428.22;5263603;28;20044;-77
2022/04/02 04:00:04;;;;;;;3.85;1.92;;;;;;;0.78;84.27;100435.97;5263349;28;20028;-77
2022/04/02 04:02:37;;;;;;;9.23;2.10;;;;;;;0.64;84.23;100438.53;5263396;28;20035;-77
2022/04/02 04:05:08;;;;;;;4.70;2.10;;;;;;;0.67;83.64;100435.97;5263841;28;20048;-77
2022/04/02 04:07:38;;;;;;;2.97;1.90;;;;;;;0.55;84.81;100438.50;5263374;28;20473;-77
2022/04/02 04:10:08;;;;;;;3.92;1.95;;;;;;;0.60;84.70;100441.97;5263317;28;20114;-77
2022/04/02 04:12:39;;;;;;;8.20;1.80;;;;;;;0.59;84.80;100437.63;5263511;28;20035;-77
2022/04/02 04:15:09;;;;;;;5.32;2.10;;;;;;;0.58;84.71;100437.66;5262235;28;20028;-77
2022/04/02 04:17:42;;;;;;;4.95;1.90;;;;;;;0.65;84.59;100445.38;5259023;28;20046;-77
2022/04/02 04:20:12;;;;;;;4.60;1.90;;;;;;;0.54;84.66;100441.94;5263109;28;20105;-77
2022/04/02 04:22:43;;;;;;;4.25;2.00;;;;;;;0.56;85.11;100449.66;5262992;28;20048;-77
2022/04/02 04:25:13;;;;;;;6.82;2.10;;;;;;;0.49;84.50;100447.91;5263136;28;20393;-77
2022/04/02 04:27:43;;;;;;;4.25;1.85;;;;;;;0.54;84.51;100447.06;5263291;28;20028;-77
2022/04/02 04:30:13;;;;;;;4.82;2.10;;;;;;;0.42;85.91;100447.03;5263105;28;20085;-77
2022/04/02 04:32:44;;;;;;;4.05;1.90;;;;;;;0.60;85.22;100459.06;5263130;28;20020;-77
2022/04/02 04:35:14;;;;;;;5.63;2.03;;;;;;;0.57;85.22;100451.38;5262939;28;20032;-77
2022/04/02 04:37:44;;;;;;;4.88;2.13;;;;;;;0.61;85.26;100465.94;5262876;28;20031;-77
2022/04/02 04:40:14;;;;;;;4.68;2.10;;;;;;;0.36;86.46;100465.00;5262912;28;20489;-77
2022/04/02 04:42:45;;;;;;;3.97;2.20;;;;;;;0.32;86.53;100476.13;5262723;28;20107;-77
2022/04/02 04:45:15;;;;;;;4.82;2.10;;;;;;;0.41;86.31;100468.44;5262285;28;20043;-77
2022/04/02 04:47:46;;;;;;;6.28;2.22;;;;;;;0.32;86.56;100467.56;5262100;28;20448;-77
2022/04/02 04:50:16;;;;;;;6.50;2.17;;;;;;;0.46;86.82;100479.63;5262293;28;20108;-77
2022/04/02 04:52:47;;;;;;;4.65;1.98;;;;;;;0.34;87.12;100483.84;5262966;28;20076;-77
2022/04/02 04:55:17;;;;;;;6.28;1.90;;;;;;;0.35;87.53;100486.41;5262915;28;20392;-77
2022/04/02 04:57:48;;;;;;;6.70;2.30;;;;;;;0.44;87.47;100490.72;5293624;22;20039;-78
2022/04/02 05:00:18;;;;;;;4.22;2.13;;;;;;;0.35;87.17;100501.84;5273966;28;20036;-77
2022/04/02 05:02:49;;;;;;;5.88;2.38;;;;;;;0.48;88.04;100497.59;5262248;28;20118;-78
2022/04/02 05:05:19;;;;;;;4.57;2.03;;;;;;;0.36;87.97;100498.41;5278075;28;20034;-77
2022/04/02 05:07:49;;;;;;;6.03;2.42;;;;;;;0.33;87.61;100503.53;5255306;28;20028;-78
2022/04/02 05:10:20;;;;;;;4.47;2.20;;;;;;;0.29;87.91;100506.97;5256030;28;20025;-79
2022/04/02 05:12:50;;;;;;;8.52;2.28;;;;;;;0.46;87.75;100500.19;5239250;28;20020;-78
2022/04/02 05:15:21;;;;;;;7.68;1.95;;;;;;;0.56;87.57;100501.91;5259304;28;20024;-78
2022/04/02 05:17:51;;;;;;;3.78;2.00;;;;;;;0.65;86.99;100501.94;5239383;28;20024;-78
2022/04/02 05:20:22;;;;;;;4.93;2.05;;;;;;;0.68;86.67;100506.22;5237601;28;20025;-78
2022/04/02 05:22:52;;;;;;;4.18;1.80;;;;;;;0.79;86.35;100509.69;5238451;28;20031;-77
2022/04/02 05:25:22;;;;;;;5.25;2.00;;;;;;;0.83;85.44;100516.53;5256114;28;20234;-77
2022/04/02 05:27:54;;;;;;;4.28;2.05;;;;;;;0.92;85.71;100517.41;5256445;28;20031;-79
2022/04/02 05:30:27;;;;;;;5.05;2.13;;;;;;;0.78;85.65;100519.13;5256574;28;20026;-77
2022/04/02 05:32:57;;;;;;;4.57;2.10;;;;;;;1.01;84.72;100529.44;5256136;28;20070;-78
2022/04/02 05:35:27;;;;;;;6.03;2.00;;;;;;;1.09;84.03;100520.03;5253417;28;20036;-78
2022/04/02 05:37:57;;;;;;;4.55;2.15;;;;;;;1.41;83.53;100523.50;5255911;28;20367;-76
2022/04/02 05:40:28;;;;;;;7.20;1.90;;;;;;;1.44;82.84;100526.91;5255940;28;20039;-78
2022/04/02 05:42:59;;;;;;;3.78;2.13;;;;;;;1.42;83.14;100531.19;5238548;28;20068;-78
2022/04/02 05:45:29;;;;;;;4.35;2.10;;;;;;;1.53;82.41;100532.06;5261332;28;20036;-76
2022/04/02 05:48:00;;;;;;;4.30;1.90;;;;;;;1.44;82.91;100534.63;5255486;28;20625;-76
2022/04/02 05:50:31;;;;;;;6.97;2.03;;;;;;;1.32;83.00;100539.78;5252041;28;20046;-77
2022/04/02 05:53:02;;;;;;;4.22;2.10;;;;;;;1.52;82.83;100544.94;5257220;28;20019;-78
2022/04/02 05:55:32;;;;;;;5.43;2.38;;;;;;;1.57;81.83;100540.66;5254772;28;20027;-78
2022/04/02 05:58:04;;;;;;;7.53;2.30;;;;;;;1.69;81.32;100538.94;5241579;28;20024;-78
2022/04/02 06:00:34;;;;;;;5.78;2.42;;;;;;;1.90;80.80;100542.34;5258641;28;20502;-74
2022/04/02 06:03:05;;;;;;;3.97;1.75;;;;;;;1.90;80.80;100549.19;5253022;28;20040;-77
2022/04/02 06:05:36;;;;;;;3.85;1.88;;;;;;;1.91;81.03;100546.63;5262538;28;20020;-77
2022/04/02 06:08:06;;;;;;;3.55;1.75;;;;;;;1.63;81.04;100549.25;5260151;28;20036;-76
2022/04/02 06:10:37;;;;;;;5.07;1.95;;;;;;;1.67;80.10;100561.25;5258428;28;20024;-77
2022/04/02 06:13:07;;;;;;;4.25;1.80;;;;;;;1.80;79.83;100561.25;5258195;28;20489;-77
2022/04/02 06:15:37;;;;;;;3.45;1.85;;;;;;;2.04;79.60;100561.22;5257588;28;20121;-77
2022/04/02 06:18:08;;;;;;;5.47;2.10;;;;;;;2.40;79.14;100563.72;5255195;28;20105;-78
2022/04/02 06:20:38;;;;;;;6.88;1.98;;;;;;;2.45;77.82;100567.13;5256964;28;20028;-78
2022/04/02 06:23:08;;;;;;;4.05;1.73;;;;;;;2.45;78.49;100573.97;5257477;28;20032;-76
2022/04/02 06:25:39;;;;;;;5.22;1.65;;;;;;;2.43;77.97;100574.00;5252856;28;20466;-76
2022/04/02 06:28:09;;;;;;;3.53;1.58;;;;;;;2.41;77.22;100577.44;5257976;28;20561;-77
2022/04/02 06:30:40;;;;;;;6.22;1.90;;;;;;;2.65;76.99;100587.69;5257863;28;20474;-77
2022/04/02 06:33:10;;;;;;;4.10;1.60;;;;;;;2.73;77.36;100575.59;5261540;28;20020;-77
2022/04/02 06:35:40;;;;;;;4.05;2.00;;;;;;;2.48;76.30;100584.31;5256584;28;20454;-77
2022/04/02 06:38:10;;;;;;;3.33;1.67;;;;;;;2.59;77.58;100587.69;5255185;28;20036;-77
2022/04/02 06:40:41;;;;;;;6.45;2.30;;;;;;;2.39;77.81;100584.31;5252796;28;20020;-77
2022/04/02 06:43:11;;;;;;;4.88;1.60;;;;;;;2.56;77.11;100587.72;5255723;28;20023;-76
2022/04/02 06:45:41;;;;;;;3.42;1.50;;;;;;;2.66;76.33;100584.25;5249834;28;20036;-77
2022/04/02 06:48:13;;;;;;;6.20;1.90;;;;;;;2.68;75.71;100583.34;5255525;28;20036;-77
2022/04/02 06:50:44;;;;;;;4.45;1.95;;;;;;;2.80;75.86;100580.75;5253395;28;20048;-76
2022/04/02 06:53:14;;;;;;;3.95;1.75;;;;;;;2.73;75.58;100593.66;5256790;28;20538;-77
2022/04/02 06:55:46;;;;;;;4.63;1.88;;;;;;;2.99;75.44;100591.84;5254319;28;20044;-77
2022/04/02 06:58:33;;;;;;;3.13;1.55;;;;;;;3.15;74.40;100598.59;5256235;28;20028;-78
2022/04/02 07:01:04;;;;;;;4.30;1.75;;;;;;;3.47;73.65;100599.28;5259923;28;20024;-76
2022/04/02 07:03:35;;;;;;;3.75;1.80;;;;;;;3.49;73.14;100602.69;5257796;28;20032;-76
2022/04/02 07:06:05;;;;;;;4.55;1.73;;;;;;;4.29;71.35;100586.50;5253862;28;20094;-77
2022/04/02 07:08:36;;;;;;;5.97;1.70;;;;;;;4.36;69.62;100598.50;5260381;28;20383;-75
2022/04/02 07:11:07;;;;;;;5.25;2.03;;;;;;;4.66;69.61;100595.56;5253247;28;20066;-77
2022/04/02 07:13:37;;;;;;;6.40;1.95;;;;;;;5.28;67.44;100590.44;5252982;28;20020;-77
2022/04/02 07:16:07;;;;;;;4.07;1.70;;;;;;;5.42;66.92;100594.53;5254514;28;20498;-77
2022/04/02 07:18:44;;;;;;;3.58;1.60;;;;;;;5.20;66.89;100600.09;5251262;28;20539;-77
2022/04/02 07:21:16;;;;;;;3.25;1.52;;;;;;;5.59;65.69;100595.16;5253371;28;20032;-77
2022/04/02 07:23:46;;;;;;;4.60;1.92;;;;;;;4.87;67.84;100597.94;5259304;28;20056;-76
2022/04/02 07:26:18;;;;;;;3.97;1.75;;;;;;;5.71;66.41;100612.28;5257616;28;20456;-77
2022/04/02 07:28:50;;;;;;;5.00;1.70;;;;;;;5.97;65.15;100607.56;5255457;28;20028;-77
2022/04/02 07:31:20;;;;;;;4.47;1.42;;;;;;;4.54;68.39;100611.25;5258202;28;20424;-77
2022/04/02 07:33:50;;;;;;;5.28;2.03;;;;;;;5.55;66.73;100600.44;5240611;28;20020;-76
2022/04/02 07:36:50;;;;;;;4.57;1.80;;;;;;;4.28;68.88;100605.47;5258497;28;20105;-76
2022/04/02 07:39:28;;;;;;;4.20;1.70;;;;;;;5.21;67.66;100609.56;5252272;28;20027;-77
2022/04/02 07:42:04;;;;;;;6.20;1.73;;;;;;;5.84;66.76;100608.63;5254636;28;20024;-76
2022/04/02 07:45:06;;;;;;;4.30;1.30;;;;;;;5.38;65.93;100614.50;5258155;28;20508;-77
2022/04/02 07:47:38;;;;;;;6.40;1.65;;;;;;;5.20;68.24;100622.53;5257668;28;20101;-76
2022/04/02 07:50:13;;;;;;;2.88;1.27;;;;;;;4.59;68.28;100621.53;5254217;28;20450;-76
2022/04/02 07:52:49;;;;;;;3.30;1.63;;;;;;;4.31;69.46;100620.97;5255765;28;20052;-76
2022/04/02 07:55:21;;;;;;;2.97;1.42;;;;;;;4.62;69.47;100622.38;5257563;28;20260;-77
2022/04/02 07:57:52;;;;;;;4.32;1.60;;;;;;;4.80;68.35;100621.31;5259014;28;20028;-76
2022/04/02 08:00:26;;;;;;;4.72;1.50;;;;;;;4.69;69.60;100629.19;5253193;28;20024;-78
2022/04/02 08:02:57;;;;;;;3.90;1.70;;;;;;;4.60;68.66;100631.03;5254838;28;20112;-77
2022/04/02 08:05:27;;;;;;;4.13;1.60;;;;;;;4.38;68.53;100624.34;5258974;28;20028;-76
2022/04/02 08:07:58;;;;;;;5.10;2.08;;;;;;;4.52;69.22;100632.84;5252703;28;20029;-76
2022/04/02 08:10:28;;;;;;;3.17;1.60;;;;;;;4.38;69.85;100638.16;5251957;28;20032;-77
2022/04/02 08:13:00;;;;;;;5.45;1.60;;;;;;;4.06;69.13;100650.50;5256833;28;20023;-77
2022/04/02 08:15:31;;;;;;;3.60;1.50;;;;;;;3.82;70.26;100649.84;5256248;28;20020;-77
2022/04/02 08:18:02;;;;;;;4.97;1.70;;;;;;;3.80;71.10;100647.25;5252417;28;20372;-77
2022/04/02 08:20:33;;;;;;;4.15;1.50;;;;;;;3.84;70.86;100654.16;5255958;28;20222;-76
2022/04/02 08:23:03;;;;;;;7.28;1.90;;;;;;;3.98;71.79;100647.13;5256414;28;20409;-77
2022/04/02 08:25:35;;;;;;;3.05;1.50;;;;;;;3.71;71.36;100652.50;5252488;28;20077;-77
2022/04/02 08:28:24;;;;;;;4.90;1.67;;;;;;;3.69;71.27;100664.59;5251627;28;20089;-77
2022/04/02 08:31:06;;;;;;;5.22;1.80;;;;;;;3.75;70.95;100659.38;5256886;28;20020;-76
2022/04/02 08:33:41;;;;;;;7.55;1.70;;;;;;;3.58;70.59;100668.94;5252704;28;20340;-77
2022/04/02 08:36:20;;;;;;;3.78;1.80;;;;;;;3.57;72.68;100668.94;5256479;28;20024;-76
2022/04/02 08:38:54;;;;;;;4.18;1.58;;;;;;;3.78;71.23;100674.00;5253797;28;20087;-78
2022/04/02 08:42:00;;;;;;;4.30;1.55;;;;;;;3.84;71.06;100661.91;5246805;28;20032;-76
2022/04/02 08:45:01;;;;;;;4.68;1.67;;;;;;;3.51;71.43;100668.16;5250870;28;20609;-77
2022/04/02 08:47:59;;;;;;;3.55;1.80;;;;;;;3.58;72.21;100661.19;5249636;28;20031;-77
2022/04/02 08:50:36;;;;;;;3.00;1.60;;;;;;;3.66;71.76;100668.91;5253719;28;20035;-77
2022/04/02 08:53:17;;;;;;;5.45;1.80;;;;;;;3.83;72.42;100673.09;5256333;28;20474;-77
2022/04/02 08:56:00;;;;;;;3.83;1.70;;;;;;;3.80;71.64;100675.69;5261022;28;20040;-76
2022/04/02 08:59:04;;;;;;;4.25;1.73;;;;;;;3.79;71.48;100666.22;5258514;28;20052;-78
2022/04/02 09:01:52;;;;;;;5.10;1.83;;;;;;;3.92;71.87;100675.59;5256089;28;20036;-77
2022/04/02 09:04:41;;;;;;;4.60;1.80;;;;;;;4.26;71.70;100684.81;5256421;28;20039;-78
2022/04/02 09:07:37;;;;;;;4.20;2.03;;;;;;;3.92;69.72;100678.19;5262676;28;20206;-78
2022/04/02 09:10:24;;;;;;;;;;;;;;;3.94;70.62;100673.03;5259819;28;20120;-77
2022/04/02 09:13:33;;;;;;;4.82;1.88;;;;;;;3.93;70.17;100674.75;5256897;28;20015;-76
2022/04/02 09:16:10;;;;;;;5.32;1.90;;;;;;;4.12;71.29;100672.88;5254579;28;20251;-78
2022/04/02 09:18:59;;;;;;;5.65;1.98;;;;;;;4.31;70.99;100677.03;5255713;28;20123;-77
2022/04/02 09:21:48;;;;;;;4.85;1.80;;;;;;;3.99;70.58;100674.69;5254180;28;20037;-78
2022/04/02 09:24:54;;;;;;;3.72;1.80;;;;;;;4.18;70.71;100675.41;5256092;28;20035;-78
2022/04/02 09:27:59;;;;;;;4.73;1.83;;;;;;;4.27;70.84;100683.09;5257827;28;20040;-77
2022/04/02 09:30:39;;;;;;;5.15;2.13;;;;;;;4.29;70.66;100669.25;5259539;28;20060;-77
2022/04/02 09:33:46;;;;;;;4.38;2.00;;;;;;;4.26;70.82;100674.47;5256934;28;20094;-77
2022/04/02 09:36:31;;;;;;;3.42;1.77;;;;;;;4.33;70.10;100681.28;5254010;28;20414;-77
2022/04/02 09:39:05;;;;;;;3.63;1.70;;;;;;;4.47;69.94;100679.44;5258650;28;20036;-77
2022/04/02 09:41:39;;;;;;;7.00;2.00;;;;;;;4.53;69.57;100678.53;5244638;28;20024;-78
2022/04/02 09:44:29;;;;;;;4.50;1.70;;;;;;;4.51;69.64;100673.41;5260323;28;20040;-77
2022/04/02 09:47:29;;;;;;;4.57;1.73;;;;;;;4.56;69.17;100663.84;5262154;28;20623;-77
2022/04/02 09:50:06;;;;;;;3.58;1.52;;;;;;;4.50;69.22;100673.41;5263975;28;20131;-76
2022/04/02 09:52:55;;;;;;;4.95;1.80;;;;;;;4.42;69.17;100683.81;5239425;28;20538;-76
2022/04/02 09:55:35;;;;;;;4.20;1.50;;;;;;;4.20;67.80;100679.72;5256152;28;20030;-77
2022/04/02 09:58:40;;;;;;;5.22;1.90;;;;;;;4.22;68.90;100670.19;5256188;28;20100;-76
2022/04/02 10:01:25;;;;;;;3.28;1.52;;;;;;;4.36;68.38;100680.41;5253412;28;20032;-77
2022/04/02 10:04:13;;;;;;;2.83;1.60;;;;;;;4.46;68.03;100676.88;5255201;28;20048;-77
2022/04/02 10:06:48;;;;;;;2.35;1.45;;;;;;;4.42;67.12;100672.59;5261093;28;20233;-77
2022/04/02 10:09:22;;;;;;;3.63;1.55;;;;;;;4.34;66.67;100670.09;5260834;28;20089;-76
2022/04/02 10:12:00;;;;;;;3.88;1.52;;;;;;;4.64;67.66;100667.19;5241294;28;20028;-78
2022/04/02 10:14:33;;;;;;;3.65;1.42;;;;;;;4.64;66.13;100671.53;5264310;28;20519;-77
2022/04/02 10:17:06;;;;;;;2.97;1.50;;;;;;;4.63;65.34;100665.47;5256771;28;20027;-78
2022/04/02 10:19:39;;;;;;;2.83;1.67;;;;;;;4.82;66.15;100671.34;5264380;28;20033;-77
2022/04/02 10:22:10;;;;;;;3.45;1.73;;;;;;;4.69;64.50;100667.16;5259882;28;20085;-77
2022/04/02 10:24:48;;;;;;;7.93;1.58;;;;;;;4.73;64.12;100667.13;5257957;28;20028;-77
2022/04/02 10:27:33;;;;;;;3.13;1.40;;;;;;;4.63;63.29;100668.06;5260492;28;20448;-76
2022/04/02 10:30:09;;;;;;;2.53;1.40;;;;;;;4.85;64.46;100659.22;5259998;28;20455;-78
2022/04/02 10:35:48;;;;;;;4.10;1.67;;;;;;;4.86;62.75;100658.34;5257326;28;20447;-77
2022/04/02 10:38:33;;;;;;;3.38;1.40;;;;;;;4.76;63.66;100672.25;5258831;28;20415;-77
2022/04/02 10:41:08;;;;;;;2.83;1.40;;;;;;;4.70;63.54;100667.16;5257456;28;20071;-77
2022/04/02 10:43:51;;;;;;;3.35;1.50;;;;;;;4.65;63.92;100663.72;5259898;28;20147;-77
2022/04/02 10:46:25;;;;;;;3.20;1.50;;;;;;;4.82;64.42;100672.19;5238095;28;20032;-77
2022/04/02 10:48:57;;;;;;;3.83;1.88;;;;;;;4.75;63.71;100670.53;5257752;28;20607;-78
2022/04/02 10:51:30;;;;;;;4.30;1.70;;;;;;;4.92;64.20;100663.44;5253658;28;20048;-77
2022/04/02 10:54:03;;;;;;;2.70;1.40;;;;;;;5.06;64.62;100671.03;5259956;28;20504;-78
2022/04/02 10:56:48;;;;;;;4.15;1.58;;;;;;;5.04;63.60;100665.91;5259479;28;20050;-77
2022/04/02 10:59:19;;;;;;;4.95;1.67;;;;;;;5.06;64.59;100674.50;5286100;22;20044;-79
2022/04/02 11:01:58;;;;;;;3.95;1.60;;;;;;;4.84;63.83;100675.59;5253760;28;20024;-78
2022/04/02 11:04:54;;;;;;;4.82;1.70;;;;;;;5.02;64.24;100682.31;5276428;28;20059;-77
2022/04/02 11:07:34;;;;;;;3.33;1.70;;;;;;;4.98;62.40;100673.72;5241185;28;20036;-79
2022/04/02 11:10:04;;;;;;;3.60;1.75;;;;;;;5.12;61.96;100677.00;5235013;28;20579;-78
2022/04/02 11:12:44;;;;;;;3.22;1.55;;;;;;;5.22;61.52;100677.75;5257959;28;20028;-78
2022/04/02 11:15:19;;;;;;;4.43;1.65;;;;;;;5.40;61.11;100678.38;5248425;28;20047;-78
2022/04/02 11:18:01;;;;;;;3.10;1.40;;;;;;;5.57;60.80;100668.66;5247183;28;20021;-78
2022/04/02 11:20:32;;;;;;;2.97;1.50;;;;;;;5.65;59.67;100670.25;5253390;28;21166;-78
2022/04/02 11:23:15;;;;;;;4.82;1.30;;;;;;;5.79;59.30;100664.91;5234148;28;20024;-78
2022/04/02 11:25:54;;;;;;;3.40;1.60;;;;;;;5.52;59.51;100667.84;5241195;28;20071;-76
2022/04/02 11:28:25;;;;;;;3.75;1.50;;;;;;;5.79;58.71;100668.34;5237202;28;20051;-77
2022/04/02 11:31:03;;;;;;;3.70;1.50;;;;;;;5.88;59.47;100669.97;5257054;28;20040;-77
2022/04/02 11:33:51;;;;;;;5.65;1.65;;;;;;;5.90;59.93;100676.81;5253817;28;20493;-78
2022/04/02 11:36:38;;;;;;;3.13;1.42;;;;;;;5.49;59.91;100668.75;5256770;28;20051;-76
2022/04/02 11:39:11;;;;;;;3.85;1.60;;;;;;;5.35;59.02;100664.63;5252506;28;20263;-77
2022/04/02 11:41:42;;;;;;;3.97;1.30;;;;;;;5.76;59.13;100668.34;5256571;28;20040;-77
2022/04/02 11:44:14;;;;;;;5.07;1.58;;;;;;;5.49;59.49;100667.88;5256806;28;20029;-77
2022/04/02 11:46:53;;;;;;;3.20;1.60;;;;;;;5.89;59.50;100658.69;5249939;28;20114;-76
2022/04/02 11:49:39;;;;;;;4.30;1.60;;;;;;;5.53;60.58;100659.19;5255324;28;20028;-78
2022/04/02 11:52:11;;;;;;;;;;;;;;;5.73;58.48;100665.81;5252799;28;20060;-77
2022/04/02 11:54:44;;;;;;;5.20;1.60;;;;;;;5.77;57.19;100658.84;5254650;28;20010;-78
2022/04/02 11:57:16;;;;;;;3.42;1.35;;;;;;;6.26;57.48;100659.81;5251256;28;20068;-78
2022/04/02 11:59:52;;;;;;;3.38;1.30;;;;;;;6.05;57.33;100660.19;5233475;28;20722;-76
2022/04/02 12:02:40;;;;;;;1.98;1.17;;;;;;;6.06;56.88;100656.69;5250221;28;20120;-77
2022/04/02 12:05:13;;;;;;;2.55;1.23;;;;;;;6.37;58.02;100668.25;5250942;28;20086;-79
2022/04/02 12:07:48;;;;;;;3.42;1.10;;;;;;;6.45;56.58;100661.22;5232387;28;20135;-78
2022/04/02 12:10:23;;;;;;;2.20;1.08;;;;;;;6.46;57.70;100668.13;5248021;28;20032;-78
2022/04/02 12:12:58;;;;;;;5.03;1.50;;;;;;;6.15;57.96;100670.38;5250881;28;20023;-78